sensor_id;sensor_type;location;lat;lon;timestamp;pressure;altitude;pressure_sealevel;temperature;humidity
74230;BME280;62589;12.568;99.958;2023-03-29T00:16:47;101037.38;;;32.62;45.96
74230;BME280;62589;12.568;99.958;2023-03-29T00:19:13;101036.59;;;32.62;46.13
74230;BME280;62589;12.568;99.958;2023-03-29T00:21:40;101038.25;;;32.70;45.73
74230;BME280;62589;12.568;99.958;2023-03-29T00:24:07;101038.31;;;32.73;45.98
74230;BME280;62589;12.568;99.958;2023-03-29T00:26:33;101040.75;;;32.78;45.79
74230;BME280;62589;12.568;99.958;2023-03-29T00:29:00;101052.31;;;32.84;46.18
74230;BME280;62589;12.568;99.958;2023-03-29T00:31:26;101042.84;;;32.89;45.93
74230;BME280;62589;12.568;99.958;2023-03-29T00:33:53;101043.31;;;32.94;46.63
74230;BME280;62589;12.568;99.958;2023-03-29T00:36:19;101056.50;;;33.01;46.76
74230;BME280;62589;12.568;99.958;2023-03-29T00:38:47;101042.22;;;33.06;46.35
74230;BME280;62589;12.568;99.958;2023-03-29T00:41:13;101053.78;;;33.11;46.64
74230;BME280;62589;12.568;99.958;2023-03-29T00:43:59;101059.44;;;33.19;46.36
74230;BME280;62589;12.568;99.958;2023-03-29T00:46:27;101059.50;;;33.26;46.33
74230;BME280;62589;12.568;99.958;2023-03-29T00:49:01;101054.78;;;33.30;47.57
74230;BME280;62589;12.568;99.958;2023-03-29T00:51:32;101052.47;;;33.39;47.03
74230;BME280;62589;12.568;99.958;2023-03-29T00:54:01;101048.56;;;33.47;45.85
74230;BME280;62589;12.568;99.958;2023-03-29T00:56:34;101050.59;;;33.54;44.86
74230;BME280;62589;12.568;99.958;2023-03-29T00:59:23;101049.47;;;33.62;45.75
74230;BME280;62589;12.568;99.958;2023-03-29T01:02:04;101043.13;;;33.68;45.97
74230;BME280;62589;12.568;99.958;2023-03-29T01:04:58;101053.63;;;33.82;46.46
74230;BME280;62589;12.568;99.958;2023-03-29T01:07:42;101054.41;;;33.83;46.61
74230;BME280;62589;12.568;99.958;2023-03-29T01:10:42;101065.59;;;33.93;46.59
74230;BME280;62589;12.568;99.958;2023-03-29T01:13:14;101072.81;;;33.98;45.98
74230;BME280;62589;12.568;99.958;2023-03-29T01:15:44;101067.63;;;33.96;46.23
74230;BME280;62589;12.568;99.958;2023-03-29T01:18:12;101071.19;;;33.93;46.46
74230;BME280;62589;12.568;99.958;2023-03-29T01:21:05;101064.50;;;34.05;46.18
74230;BME280;62589;12.568;99.958;2023-03-29T01:24:03;101080.47;;;34.15;46.55
74230;BME280;62589;12.568;99.958;2023-03-29T01:29:38;101082.22;;;34.41;46.22
74230;BME280;62589;12.568;99.958;2023-03-29T01:32:20;101076.66;;;34.52;46.40
74230;BME280;62589;12.568;99.958;2023-03-29T01:34:56;101074.72;;;34.63;46.04
74230;BME280;62589;12.568;99.958;2023-03-29T01:40:17;101080.34;;;34.77;45.36
74230;BME280;62589;12.568;99.958;2023-03-29T01:43:04;101083.56;;;34.79;45.95
74230;BME280;62589;12.568;99.958;2023-03-29T01:45:44;101085.19;;;34.87;45.29
74230;BME280;62589;12.568;99.958;2023-03-29T01:48:28;101079.59;;;34.94;44.97
74230;BME280;62589;12.568;99.958;2023-03-29T01:51:10;101080.44;;;35.09;44.74
74230;BME280;62589;12.568;99.958;2023-03-29T01:53:48;101082.44;;;35.15;44.71
74230;BME280;62589;12.568;99.958;2023-03-29T01:56:20;101085.63;;;35.21;43.78
74230;BME280;62589;12.568;99.958;2023-03-29T01:59:00;101085.25;;;35.26;44.09
74230;BME280;62589;12.568;99.958;2023-03-29T02:01:33;101075.69;;;35.34;44.13
74230;BME280;62589;12.568;99.958;2023-03-29T02:04:05;101098.44;;;35.47;44.37
74230;BME280;62589;12.568;99.958;2023-03-29T02:06:35;101088.47;;;35.53;42.97
74230;BME280;62589;12.568;99.958;2023-03-29T02:09:04;101096.44;;;35.55;42.28
74230;BME280;62589;12.568;99.958;2023-03-29T02:11:32;101096.44;;;35.55;42.32
74230;BME280;62589;12.568;99.958;2023-03-29T02:14:00;101094.44;;;35.59;42.20
74230;BME280;62589;12.568;99.958;2023-03-29T02:16:26;101088.06;;;35.69;42.14
74230;BME280;62589;12.568;99.958;2023-03-29T02:18:54;101092.44;;;35.63;40.58
74230;BME280;62589;12.568;99.958;2023-03-29T02:21:42;101088.06;;;35.72;41.35
74230;BME280;62589;12.568;99.958;2023-03-29T02:24:14;101085.66;;;35.78;40.78
74230;BME280;62589;12.568;99.958;2023-03-29T02:26:43;101080.47;;;35.84;40.50
74230;BME280;62589;12.568;99.958;2023-03-29T02:29:10;101083.25;;;35.91;40.16
74230;BME280;62589;12.568;99.958;2023-03-29T02:31:40;101082.47;;;35.87;39.93
74230;BME280;62589;12.568;99.958;2023-03-29T02:34:29;101082.81;;;36.06;39.45
74230;BME280;62589;12.568;99.958;2023-03-29T02:37:05;101084.00;;;36.16;39.52
74230;BME280;62589;12.568;99.958;2023-03-29T02:39:36;101084.38;;;36.18;38.06
74230;BME280;62589;12.568;99.958;2023-03-29T02:42:04;101081.59;;;36.25;37.40
74230;BME280;62589;12.568;99.958;2023-03-29T02:44:33;101083.56;;;36.21;37.45
74230;BME280;62589;12.568;99.958;2023-03-29T02:47:07;101083.97;;;36.23;38.08
74230;BME280;62589;12.568;99.958;2023-03-29T02:49:37;101078.00;;;36.28;37.45
74230;BME280;62589;12.568;99.958;2023-03-29T02:52:09;101068.38;;;36.36;37.74
74230;BME280;62589;12.568;99.958;2023-03-29T02:54:37;101077.06;;;36.56;36.46
74230;BME280;62589;12.568;99.958;2023-03-29T02:57:09;101073.09;;;36.54;35.82
74230;BME280;62589;12.568;99.958;2023-03-29T02:59:36;101066.78;;;36.32;35.70
74230;BME280;62589;12.568;99.958;2023-03-29T03:02:04;101076.31;;;36.41;33.87
74230;BME280;62589;12.568;99.958;2023-03-29T03:04:31;101079.06;;;36.56;32.96
74230;BME280;62589;12.568;99.958;2023-03-29T03:07:03;101080.22;;;36.65;31.55
74230;BME280;62589;12.568;99.958;2023-03-29T03:09:30;101071.81;;;36.62;39.75
74230;BME280;62589;12.568;99.958;2023-03-29T03:11:56;101074.56;;;36.79;40.67
74230;BME280;62589;12.568;99.958;2023-03-29T03:14:23;101074.22;;;36.74;41.05
74230;BME280;62589;12.568;99.958;2023-03-29T03:16:53;101068.16;;;36.79;41.61
74230;BME280;62589;12.568;99.958;2023-03-29T03:19:20;101064.53;;;36.86;41.60
74230;BME280;62589;12.568;99.958;2023-03-29T03:21:46;101072.09;;;36.92;41.92
74230;BME280;62589;12.568;99.958;2023-03-29T03:24:14;101066.50;;;36.92;42.50
74230;BME280;62589;12.568;99.958;2023-03-29T03:26:40;101072.94;;;36.86;43.07
74230;BME280;62589;12.568;99.958;2023-03-29T03:29:07;101061.69;;;36.96;42.92
74230;BME280;62589;12.568;99.958;2023-03-29T03:31:33;101060.81;;;37.03;43.71
74230;BME280;62589;12.568;99.958;2023-03-29T03:34:00;101053.66;;;36.98;43.42
74230;BME280;62589;12.568;99.958;2023-03-29T03:36:26;101055.28;;;36.92;42.74
74230;BME280;62589;12.568;99.958;2023-03-29T03:38:56;101045.59;;;37.04;42.58
74230;BME280;62589;12.568;99.958;2023-03-29T03:41:22;101047.59;;;37.07;42.54
74230;BME280;62589;12.568;99.958;2023-03-29T03:43:51;101043.56;;;37.11;41.95
74230;BME280;62589;12.568;99.958;2023-03-29T03:46:17;101035.66;;;36.99;42.43
74230;BME280;62589;12.568;99.958;2023-03-29T03:48:45;101035.66;;;36.99;42.06
74230;BME280;62589;12.568;99.958;2023-03-29T03:51:12;101042.47;;;36.98;43.09
74230;BME280;62589;12.568;99.958;2023-03-29T03:53:38;101039.22;;;37.03;41.83
74230;BME280;62589;12.568;99.958;2023-03-29T03:56:05;101050.47;;;36.96;42.09
74230;BME280;62589;12.568;99.958;2023-03-29T03:58:34;101053.19;;;37.07;42.72
74230;BME280;62589;12.568;99.958;2023-03-29T04:01:02;101048.50;;;36.93;42.03
74230;BME280;62589;12.568;99.958;2023-03-29T04:03:29;101039.63;;;37.02;41.85
74230;BME280;62589;12.568;99.958;2023-03-29T04:05:59;101040.81;;;37.01;43.41
74230;BME280;62589;12.568;99.958;2023-03-29T04:08:26;101027.59;;;37.05;44.19
74230;BME280;62589;12.568;99.958;2023-03-29T04:10:57;101035.66;;;36.99;43.53
74230;BME280;62589;12.568;99.958;2023-03-29T04:13:24;101030.78;;;37.07;43.47
74230;BME280;62589;12.568;99.958;2023-03-29T04:15:52;101036.81;;;37.05;43.01
74230;BME280;62589;12.568;99.958;2023-03-29T04:18:19;101030.44;;;37.01;44.68
74230;BME280;62589;12.568;99.958;2023-03-29T04:20:47;101027.28;;;36.99;44.13
74230;BME280;62589;12.568;99.958;2023-03-29T04:23:14;101022.81;;;37.05;43.27
74230;BME280;62589;12.568;99.958;2023-03-29T04:25:40;101020.81;;;37.06;43.24
74230;BME280;62589;12.568;99.958;2023-03-29T04:28:10;101007.16;;;37.11;43.31
74230;BME280;62589;12.568;99.958;2023-03-29T04:30:37;100995.19;;;37.07;43.52
74230;BME280;62589;12.568;99.958;2023-03-29T04:33:03;100992.41;;;37.07;43.18
74230;BME280;62589;12.568;99.958;2023-03-29T04:35:30;100997.19;;;37.07;42.87
74230;BME280;62589;12.568;99.958;2023-03-29T04:37:57;100989.94;;;37.16;43.38
74230;BME280;62589;12.568;99.958;2023-03-29T04:40:23;100997.19;;;37.10;43.49
74230;BME280;62589;12.568;99.958;2023-03-29T04:42:50;100984.34;;;37.16;43.88
74230;BME280;62589;12.568;99.958;2023-03-29T04:45:17;100987.13;;;37.16;43.99
74230;BME280;62589;12.568;99.958;2023-03-29T04:47:44;100971.03;;;37.31;43.60
74230;BME280;62589;12.568;99.958;2023-03-29T04:50:12;100971.88;;;37.25;42.18
74230;BME280;62589;12.568;99.958;2023-03-29T04:52:39;100960.47;;;37.01;42.96
74230;BME280;62589;12.568;99.958;2023-03-29T04:55:06;100965.56;;;37.13;42.05
74230;BME280;62589;12.568;99.958;2023-03-29T04:57:33;100949.19;;;37.08;42.13
74230;BME280;62589;12.568;99.958;2023-03-29T05:00:00;100948.84;;;37.03;41.53
74230;BME280;62589;12.568;99.958;2023-03-29T05:02:26;100949.25;;;37.01;42.54
74230;BME280;62589;12.568;99.958;2023-03-29T05:04:57;100937.94;;;37.15;42.54
74230;BME280;62589;12.568;99.958;2023-03-29T05:07:23;100936.78;;;37.13;43.39
74230;BME280;62589;12.568;99.958;2023-03-29T05:09:50;100931.19;;;37.13;42.06
74230;BME280;62589;12.568;99.958;2023-03-29T05:12:16;100929.13;;;37.21;41.71
74230;BME280;62589;12.568;99.958;2023-03-29T05:14:43;100923.97;;;37.12;42.05
74230;BME280;62589;12.568;99.958;2023-03-29T05:17:09;100924.78;;;37.12;43.08
74230;BME280;62589;12.568;99.958;2023-03-29T05:19:36;100913.50;;;37.23;42.86
74230;BME280;62589;12.568;99.958;2023-03-29T05:22:03;100907.56;;;37.14;42.41
74230;BME280;62589;12.568;99.958;2023-03-29T05:24:29;100902.84;;;37.07;43.03
74230;BME280;62589;12.568;99.958;2023-03-29T05:26:59;100894.50;;;37.00;43.08
74230;BME280;62589;12.568;99.958;2023-03-29T05:29:26;100889.81;;;36.90;42.69
74230;BME280;62589;12.568;99.958;2023-03-29T05:31:52;100891.38;;;36.95;41.86
74230;BME280;62589;12.568;99.958;2023-03-29T05:34:19;100874.56;;;36.95;41.96
74230;BME280;62589;12.568;99.958;2023-03-29T05:36:45;100874.56;;;36.98;42.87
74230;BME280;62589;12.568;99.958;2023-03-29T05:39:12;100864.94;;;36.99;42.34
74230;BME280;62589;12.568;99.958;2023-03-29T05:41:40;100861.25;;;37.06;42.56
74230;BME280;62589;12.568;99.958;2023-03-29T05:44:06;100856.84;;;37.08;42.19
74230;BME280;62589;12.568;99.958;2023-03-29T05:46:36;100860.97;;;36.97;41.82
74230;BME280;62589;12.568;99.958;2023-03-29T05:49:03;100855.41;;;36.93;42.36
74230;BME280;62589;12.568;99.958;2023-03-29T05:51:29;100837.41;;;36.94;42.73
74230;BME280;62589;12.568;99.958;2023-03-29T05:53:58;100832.47;;;37.05;42.94
74230;BME280;62589;12.568;99.958;2023-03-29T05:56:24;100829.78;;;36.98;42.58
74230;BME280;62589;12.568;99.958;2023-03-29T05:58:53;100810.09;;;37.05;43.57
74230;BME280;62589;12.568;99.958;2023-03-29T06:01:22;100810.00;;;37.12;43.59
74230;BME280;62589;12.568;99.958;2023-03-29T06:03:50;100803.97;;;37.17;43.19
74230;BME280;62589;12.568;99.958;2023-03-29T06:06:17;100805.63;;;37.11;42.44
74230;BME280;62589;12.568;99.958;2023-03-29T06:08:44;100811.63;;;37.10;42.29
74230;BME280;62589;12.568;99.958;2023-03-29T06:11:11;100792.91;;;37.03;43.43
74230;BME280;62589;12.568;99.958;2023-03-29T06:13:41;100791.31;;;37.02;42.88
74230;BME280;62589;12.568;99.958;2023-03-29T06:16:09;100784.94;;;37.02;43.96
74230;BME280;62589;12.568;99.958;2023-03-29T06:18:37;100775.66;;;37.08;44.17
74230;BME280;62589;12.568;99.958;2023-03-29T06:21:05;100782.13;;;37.02;42.78
74230;BME280;62589;12.568;99.958;2023-03-29T06:23:32;100781.63;;;36.76;43.83
74230;BME280;62589;12.568;99.958;2023-03-29T06:25:59;100773.31;;;36.66;44.09
74230;BME280;62589;12.568;99.958;2023-03-29T06:28:26;100771.94;;;36.85;44.62
74230;BME280;62589;12.568;99.958;2023-03-29T06:30:52;100771.47;;;36.90;44.38
74230;BME280;62589;12.568;99.958;2023-03-29T06:33:21;100765.50;;;36.88;44.21
74230;BME280;62589;12.568;99.958;2023-03-29T06:35:50;100761.75;;;37.01;44.52
74230;BME280;62589;12.568;99.958;2023-03-29T06:38:16;100756.06;;;36.71;43.97
74230;BME280;62589;12.568;99.958;2023-03-29T06:40:43;100748.91;;;36.25;46.30
74230;BME280;62589;12.568;99.958;2023-03-29T06:43:10;100754.16;;;36.61;45.21
74230;BME280;62589;12.568;99.958;2023-03-29T06:45:37;100750.88;;;36.69;45.26
74230;BME280;62589;12.568;99.958;2023-03-29T06:48:05;100748.50;;;36.68;44.98
74230;BME280;62589;12.568;99.958;2023-03-29T06:50:33;100736.50;;;36.71;44.46
74230;BME280;62589;12.568;99.958;2023-03-29T06:53:00;100740.91;;;36.68;44.92
74230;BME280;62589;12.568;99.958;2023-03-29T06:55:27;100735.84;;;36.56;45.92
74230;BME280;62589;12.568;99.958;2023-03-29T06:57:53;100726.88;;;36.75;45.68
74230;BME280;62589;12.568;99.958;2023-03-29T07:00:20;100721.97;;;36.83;45.57
74230;BME280;62589;12.568;99.958;2023-03-29T07:02:54;100732.13;;;36.66;44.98
74230;BME280;62589;12.568;99.958;2023-03-29T07:05:24;100716.31;;;36.53;46.11
74230;BME280;62589;12.568;99.958;2023-03-29T07:07:54;100715.13;;;36.50;46.51
74230;BME280;62589;12.568;99.958;2023-03-29T07:10:28;100697.94;;;36.52;46.52
74230;BME280;62589;12.568;99.958;2023-03-29T07:12:58;100705.13;;;36.53;45.46
74230;BME280;62589;12.568;99.958;2023-03-29T07:15:26;100712.69;;;36.56;45.92
74230;BME280;62589;12.568;99.958;2023-03-29T07:17:55;100685.78;;;36.65;46.08
74230;BME280;62589;12.568;99.958;2023-03-29T07:20:23;100691.72;;;36.74;46.19
74230;BME280;62589;12.568;99.958;2023-03-29T07:22:50;100677.78;;;36.67;46.29
74230;BME280;62589;12.568;99.958;2023-03-29T07:27:55;100672.84;;;36.44;46.71
74230;BME280;62589;12.568;99.958;2023-03-29T07:30:23;100665.69;;;36.40;46.93
74230;BME280;62589;12.568;99.958;2023-03-29T07:32:52;100654.22;;;36.31;47.71
74230;BME280;62589;12.568;99.958;2023-03-29T07:35:19;100662.22;;;36.29;47.70
74230;BME280;62589;12.568;99.958;2023-03-29T07:37:46;100662.66;;;36.20;48.48
74230;BME280;62589;12.568;99.958;2023-03-29T07:40:15;100646.28;;;36.26;48.83
74230;BME280;62589;12.568;99.958;2023-03-29T07:42:47;100644.66;;;36.28;48.66
74230;BME280;62589;12.568;99.958;2023-03-29T07:45:14;100636.09;;;36.42;47.97
74230;BME280;62589;12.568;99.958;2023-03-29T07:47:46;100635.69;;;36.44;47.94
74230;BME280;62589;12.568;99.958;2023-03-29T07:50:14;100643.06;;;36.27;47.83
74230;BME280;62589;12.568;99.958;2023-03-29T07:52:41;100625.06;;;36.32;48.10
74230;BME280;62589;12.568;99.958;2023-03-29T07:55:10;100619.44;;;36.35;48.08
74230;BME280;62589;12.568;99.958;2023-03-29T07:57:38;100607.13;;;36.29;48.23
74230;BME280;62589;12.568;99.958;2023-03-29T08:00:07;100616.31;;;36.26;48.34
74230;BME280;62589;12.568;99.958;2023-03-29T08:02:36;100606.66;;;36.34;48.39
74230;BME280;62589;12.568;99.958;2023-03-29T08:05:03;100624.75;;;36.19;48.01
74230;BME280;62589;12.568;99.958;2023-03-29T08:07:29;100599.59;;;36.19;48.46
74230;BME280;62589;12.568;99.958;2023-03-29T08:09:56;100603.59;;;36.18;47.76
74230;BME280;62589;12.568;99.958;2023-03-29T08:12:22;100603.59;;;36.18;48.08
74230;BME280;62589;12.568;99.958;2023-03-29T08:14:48;100615.84;;;36.35;47.79
74230;BME280;62589;12.568;99.958;2023-03-29T08:17:15;100607.88;;;36.33;47.10
74230;BME280;62589;12.568;99.958;2023-03-29T08:19:41;100600.28;;;36.34;47.38
74230;BME280;62589;12.568;99.958;2023-03-29T08:22:08;100606.69;;;36.31;47.12
74230;BME280;62589;12.568;99.958;2023-03-29T08:24:34;100604.31;;;36.29;47.82
74230;BME280;62589;12.568;99.958;2023-03-29T08:27:00;100602.28;;;36.33;47.38
74230;BME280;62589;12.568;99.958;2023-03-29T08:29:27;100593.59;;;36.24;47.41
74230;BME280;62589;12.568;99.958;2023-03-29T08:31:54;100603.00;;;35.96;48.05
74230;BME280;62589;12.568;99.958;2023-03-29T08:34:21;100599.56;;;36.23;47.79
74230;BME280;62589;12.568;99.958;2023-03-29T08:36:47;100593.97;;;36.26;47.60
74230;BME280;62589;12.568;99.958;2023-03-29T08:39:14;100592.84;;;36.17;47.90
74230;BME280;62589;12.568;99.958;2023-03-29T08:50:24;100574.06;;;36.17;47.21
74230;BME280;62589;12.568;99.958;2023-03-29T08:52:58;100573.28;;;36.17;47.55
74230;BME280;62589;12.568;99.958;2023-03-29T08:55:41;100572.06;;;36.17;46.96
74230;BME280;62589;12.568;99.958;2023-03-29T08:58:14;100571.41;;;36.03;47.86
74230;BME280;62589;12.568;99.958;2023-03-29T09:00:53;100559.66;;;36.19;48.14
74230;BME280;62589;12.568;99.958;2023-03-29T09:03:36;100557.25;;;36.24;48.03
74230;BME280;62589;12.568;99.958;2023-03-29T09:06:07;100566.47;;;36.17;48.17
74230;BME280;62589;12.568;99.958;2023-03-29T09:08:43;100573.19;;;36.24;48.54
74230;BME280;62589;12.568;99.958;2023-03-29T09:11:41;100566.44;;;36.21;49.06
74230;BME280;62589;12.568;99.958;2023-03-29T09:29:12;100575.81;;;36.04;49.39
74230;BME280;62589;12.568;99.958;2023-03-29T09:31:42;100572.25;;;36.00;50.21
74230;BME280;62589;12.568;99.958;2023-03-29T09:34:22;100570.28;;;35.97;50.64
74230;BME280;62589;12.568;99.958;2023-03-29T09:37:02;100570.88;;;35.77;50.72
74230;BME280;62589;12.568;99.958;2023-03-29T09:39:35;100560.50;;;35.78;50.98
74230;BME280;62589;12.568;99.958;2023-03-29T09:42:07;100567.66;;;35.31;52.37
74230;BME280;62589;12.568;99.958;2023-03-29T09:44:41;100573.53;;;35.47;51.47
74230;BME280;62589;12.568;99.958;2023-03-29T09:47:35;100572.22;;;35.59;51.42
74230;BME280;62589;12.568;99.958;2023-03-29T09:50:43;100582.44;;;35.76;49.71
74230;BME280;62589;12.568;99.958;2023-03-29T09:53:21;100583.69;;;35.71;50.29
74230;BME280;62589;12.568;99.958;2023-03-29T09:55:50;100584.06;;;35.73;50.10
74230;BME280;62589;12.568;99.958;2023-03-29T09:58:23;100584.88;;;35.70;49.88
74230;BME280;62589;12.568;99.958;2023-03-29T10:00:51;100592.91;;;35.65;50.52
74230;BME280;62589;12.568;99.958;2023-03-29T10:03:24;100582.31;;;35.45;50.71
74230;BME280;62589;12.568;99.958;2023-03-29T10:05:56;100599.28;;;35.69;50.46
74230;BME280;62589;12.568;99.958;2023-03-29T10:08:45;100596.06;;;35.70;50.23
74230;BME280;62589;12.568;99.958;2023-03-29T10:16:46;100589.06;;;35.48;50.77
74230;BME280;62589;12.568;99.958;2023-03-29T10:19:30;100601.00;;;35.52;50.84
74230;BME280;62589;12.568;99.958;2023-03-29T10:22:07;100610.25;;;35.42;51.15
74230;BME280;62589;12.568;99.958;2023-03-29T10:24:39;100602.22;;;35.47;50.61
74230;BME280;62589;12.568;99.958;2023-03-29T10:27:09;100601.91;;;35.35;50.66
74230;BME280;62589;12.568;99.958;2023-03-29T10:29:40;100604.00;;;35.17;51.63
74230;BME280;62589;12.568;99.958;2023-03-29T10:32:16;100603.28;;;35.05;51.88
74230;BME280;62589;12.568;99.958;2023-03-29T10:34:48;100620.03;;;35.02;52.63
74230;BME280;62589;12.568;99.958;2023-03-29T10:37:19;100606.88;;;35.02;52.46
74230;BME280;62589;12.568;99.958;2023-03-29T10:39:48;100620.06;;;34.98;52.79
74230;BME280;62589;12.568;99.958;2023-03-29T10:42:18;100618.75;;;35.13;52.06
74230;BME280;62589;12.568;99.958;2023-03-29T10:44:58;100630.00;;;35.06;51.88
74230;BME280;62589;12.568;99.958;2023-03-29T10:47:30;100628.78;;;35.07;51.30
74230;BME280;62589;12.568;99.958;2023-03-29T10:50:00;100640.41;;;34.95;51.47
74230;BME280;62589;12.568;99.958;2023-03-29T10:52:30;100629.19;;;35.06;51.79
74230;BME280;62589;12.568;99.958;2023-03-29T10:54:58;100620.44;;;35.04;51.56
74230;BME280;62589;12.568;99.958;2023-03-29T10:57:51;100635.19;;;35.01;51.93
74230;BME280;62589;12.568;99.958;2023-03-29T11:00:40;100631.56;;;35.07;51.82
74230;BME280;62589;12.568;99.958;2023-03-29T11:06:43;100645.63;;;34.86;51.82
74230;BME280;62589;12.568;99.958;2023-03-29T11:15:35;100645.16;;;34.98;50.79
74230;BME280;62589;12.568;99.958;2023-03-29T11:18:37;100645.19;;;34.95;51.00
74230;BME280;62589;12.568;99.958;2023-03-29T11:27:18;100672.31;;;34.91;50.97
74230;BME280;62589;12.568;99.958;2023-03-29T11:36:11;100679.44;;;34.95;50.71
74230;BME280;62589;12.568;99.958;2023-03-29T11:41:45;100692.97;;;35.04;50.32
74230;BME280;62589;12.568;99.958;2023-03-29T11:44:21;100693.78;;;34.97;51.02
74230;BME280;62589;12.568;99.958;2023-03-29T11:46:57;100693.00;;;34.97;50.95
74230;BME280;62589;12.568;99.958;2023-03-29T11:49:43;100696.25;;;34.85;51.65
74230;BME280;62589;12.568;99.958;2023-03-29T11:55:27;100716.97;;;34.80;51.47
74230;BME280;62589;12.568;99.958;2023-03-29T11:58:05;100719.75;;;34.91;51.31
74230;BME280;62589;12.568;99.958;2023-03-29T12:00:47;100716.91;;;35.01;50.43
74230;BME280;62589;12.568;99.958;2023-03-29T12:03:32;100727.28;;;34.97;50.08
74230;BME280;62589;12.568;99.958;2023-03-29T12:09:13;100717.75;;;34.91;49.81
74230;BME280;62589;12.568;99.958;2023-03-29T12:14:43;100732.91;;;34.90;49.72
74230;BME280;62589;12.568;99.958;2023-03-29T12:17:20;100741.63;;;34.99;49.53
74230;BME280;62589;12.568;99.958;2023-03-29T12:20:04;100740.03;;;34.95;49.76
74230;BME280;62589;12.568;99.958;2023-03-29T12:22:32;100749.56;;;35.04;49.25
74230;BME280;62589;12.568;99.958;2023-03-29T12:25:02;100748.44;;;34.84;49.68
74230;BME280;62589;12.568;99.958;2023-03-29T12:27:38;100756.03;;;34.80;49.51
74230;BME280;62589;12.568;99.958;2023-03-29T12:30:28;100762.38;;;34.84;49.48
74230;BME280;62589;12.568;99.958;2023-03-29T12:36:18;100773.09;;;35.07;49.12
74230;BME280;62589;12.568;99.958;2023-03-29T12:38:55;100774.69;;;34.97;49.21
74230;BME280;62589;12.568;99.958;2023-03-29T12:41:24;100777.50;;;34.97;49.18
74230;BME280;62589;12.568;99.958;2023-03-29T12:43:52;100775.94;;;34.89;48.97
74230;BME280;62589;12.568;99.958;2023-03-29T12:46:25;100769.13;;;34.97;49.11
74230;BME280;62589;12.568;99.958;2023-03-29T12:49:00;100774.28;;;35.02;48.87
74230;BME280;62589;12.568;99.958;2023-03-29T12:51:38;100781.47;;;35.07;48.97
74230;BME280;62589;12.568;99.958;2023-03-29T12:54:23;100792.63;;;35.07;49.10
74230;BME280;62589;12.568;99.958;2023-03-29T12:56:55;100789.78;;;35.14;49.20
74230;BME280;62589;12.568;99.958;2023-03-29T13:02:34;100816.59;;;34.90;50.08
74230;BME280;62589;12.568;99.958;2023-03-29T13:05:02;100825.34;;;34.82;50.91
74230;BME280;62589;12.568;99.958;2023-03-29T13:07:43;100815.00;;;34.82;51.31
74230;BME280;62589;12.568;99.958;2023-03-29T13:10:38;100818.56;;;34.90;50.97
74230;BME280;62589;12.568;99.958;2023-03-29T13:13:16;100812.97;;;34.93;51.50
74230;BME280;62589;12.568;99.958;2023-03-29T13:15:45;100813.34;;;34.99;51.28
74230;BME280;62589;12.568;99.958;2023-03-29T13:24:24;100811.75;;;35.08;51.73
74230;BME280;62589;12.568;99.958;2023-03-29T13:27:08;100813.75;;;34.97;52.27
74230;BME280;62589;12.568;99.958;2023-03-29T13:33:02;100810.16;;;35.00;52.26
74230;BME280;62589;12.568;99.958;2023-03-29T13:38:47;100833.28;;;35.01;52.38
74230;BME280;62589;12.568;99.958;2023-03-29T13:41:30;100843.66;;;35.04;52.24
74230;BME280;62589;12.568;99.958;2023-03-29T13:43:59;100854.00;;;35.10;51.77
74230;BME280;62589;12.568;99.958;2023-03-29T13:46:40;100855.59;;;35.11;52.14
74230;BME280;62589;12.568;99.958;2023-03-29T13:49:23;100860.00;;;35.12;51.96
74230;BME280;62589;12.568;99.958;2023-03-29T13:52:09;100862.78;;;35.12;51.87
74230;BME280;62589;12.568;99.958;2023-03-29T13:54:54;100865.13;;;35.18;51.73
74230;BME280;62589;12.568;99.958;2023-03-29T13:57:33;100865.16;;;35.10;51.92
74230;BME280;62589;12.568;99.958;2023-03-29T14:00:14;100873.09;;;35.15;52.01
74230;BME280;62589;12.568;99.958;2023-03-29T14:02:54;100874.72;;;35.17;51.95
74230;BME280;62589;12.568;99.958;2023-03-29T14:05:34;100875.09;;;35.19;51.76
74230;BME280;62589;12.568;99.958;2023-03-29T14:10:46;100883.47;;;35.22;51.58
74230;BME280;62589;12.568;99.958;2023-03-29T14:13:22;100881.47;;;35.23;51.44
74230;BME280;62589;12.568;99.958;2023-03-29T14:16:00;100882.28;;;35.27;51.61
74230;BME280;62589;12.568;99.958;2023-03-29T14:18:35;100873.91;;;35.23;51.84
74230;BME280;62589;12.568;99.958;2023-03-29T14:21:03;100878.69;;;35.23;51.80
74230;BME280;62589;12.568;99.958;2023-03-29T14:23:32;100885.06;;;35.23;51.85
74230;BME280;62589;12.568;99.958;2023-03-29T14:26:17;100884.28;;;35.23;51.95
74230;BME280;62589;12.568;99.958;2023-03-29T14:28:46;100878.69;;;35.23;51.86
74230;BME280;62589;12.568;99.958;2023-03-29T14:31:24;100889.44;;;35.21;51.58
74230;BME280;62589;12.568;99.958;2023-03-29T14:33:54;100897.81;;;35.21;51.54
74230;BME280;62589;12.568;99.958;2023-03-29T14:36:22;100892.25;;;35.24;51.47
74230;BME280;62589;12.568;99.958;2023-03-29T14:39:00;100894.22;;;35.24;51.57
74230;BME280;62589;12.568;99.958;2023-03-29T14:41:33;100883.47;;;35.19;51.61
74230;BME280;62589;12.568;99.958;2023-03-29T14:44:00;100883.88;;;35.13;52.03
74230;BME280;62589;12.568;99.958;2023-03-29T14:46:29;100894.25;;;35.17;51.91
74230;BME280;62589;12.568;99.958;2023-03-29T14:48:56;100900.63;;;35.13;52.13
74230;BME280;62589;12.568;99.958;2023-03-29T14:51:24;100893.06;;;35.10;52.30
74230;BME280;62589;12.568;99.958;2023-03-29T14:54:00;100898.66;;;35.10;51.92